createdAt,value
2023-03-16T00:01:27.275Z,6.51
2023-03-16T00:06:30.821Z,6.50
2023-03-16T00:11:34.230Z,6.46
2023-03-16T00:16:37.775Z,6.38
2023-03-16T00:21:41.209Z,6.35
2023-03-16T00:26:46.531Z,6.30
2023-03-16T00:31:49.732Z,6.22
2023-03-16T00:36:53.097Z,6.18
2023-03-16T00:41:58.542Z,6.15
2023-03-16T00:47:02.122Z,6.13
2023-03-16T00:52:07.602Z,6.10
2023-03-16T00:57:14.112Z,6.07
2023-03-16T01:02:20.180Z,6.03
2023-03-16T01:07:25.190Z,5.97
2023-03-16T01:12:28.861Z,5.85
2023-03-16T01:17:35.346Z,5.75
2023-03-16T01:22:38.890Z,5.67
2023-03-16T01:27:43.258Z,5.64
2023-03-16T01:32:46.671Z,5.59
2023-03-16T01:37:50.271Z,5.57
2023-03-16T01:43:04.612Z,5.53
2023-03-16T01:48:15.447Z,5.50
2023-03-16T01:53:21.543Z,5.48
2023-03-16T01:58:24.894Z,5.46
2023-03-16T02:03:28.574Z,5.43
2023-03-16T02:08:36.717Z,5.38
2023-03-16T02:13:40.333Z,5.32
2023-03-16T02:18:43.781Z,5.27
2023-03-16T02:23:51.032Z,5.25
2023-03-16T02:29:14.254Z,5.21
2023-03-16T02:34:18.405Z,5.18
2023-03-16T02:39:21.861Z,5.17
2023-03-16T02:44:34.049Z,5.14
2023-03-16T02:49:42.717Z,5.11
2023-03-16T02:54:46.012Z,5.08
2023-03-16T02:59:49.914Z,5.07
2023-03-16T03:04:54.690Z,5.04
2023-03-16T03:10:00.268Z,5.00
2023-03-16T03:15:06.633Z,4.91
2023-03-16T03:20:18.666Z,4.87
2023-03-16T03:25:23.020Z,4.82
2023-03-16T03:30:28.756Z,4.74
2023-03-16T03:35:34.246Z,4.68
2023-03-16T03:40:38.052Z,4.63
2023-03-16T03:45:41.324Z,4.60
2023-03-16T03:50:46.582Z,4.57
2023-03-16T03:56:13.176Z,4.56
2023-03-16T04:01:16.544Z,4.54
2023-03-16T04:06:19.924Z,4.51
2023-03-16T04:11:23.583Z,4.48
2023-03-16T04:16:28.269Z,4.44
2023-03-16T04:21:32.565Z,4.43
2023-03-16T04:26:35.954Z,4.43
2023-03-16T04:31:43.353Z,4.40
2023-03-16T04:36:46.821Z,4.33
2023-03-16T04:41:50.392Z,4.26
2023-03-16T04:46:57.486Z,4.19
2023-03-16T04:52:02.391Z,4.14
2023-03-16T04:57:06.283Z,4.07
2023-03-16T05:02:15.015Z,4.02
2023-03-16T05:07:18.804Z,4.01
2023-03-16T05:12:25.766Z,3.97
2023-03-16T05:17:32.981Z,3.94
2023-03-16T05:22:36.320Z,3.85
2023-03-16T05:27:54.190Z,3.78
2023-03-16T05:33:39.302Z,3.74
2023-03-16T05:38:46.428Z,3.72
2023-03-16T05:43:56.311Z,3.73
2023-03-16T05:49:02.421Z,3.73
2023-03-16T05:54:06.670Z,3.73
2023-03-16T05:59:18.355Z,3.77
2023-03-16T06:04:26.163Z,3.81
2023-03-16T06:09:29.911Z,3.87
2023-03-16T06:14:33.687Z,3.92
2023-03-16T06:19:37.288Z,3.99
2023-03-16T06:24:40.683Z,4.08
2023-03-16T06:29:44.356Z,4.14
2023-03-16T06:34:49.017Z,4.23
2023-03-16T06:39:52.693Z,4.29
2023-03-16T06:44:56.295Z,4.35
2023-03-16T06:49:59.990Z,4.43
2023-03-16T06:55:03.743Z,4.50
2023-03-16T07:00:09.846Z,4.59
2023-03-16T07:05:14.400Z,4.69
2023-03-16T07:10:19.630Z,4.82
2023-03-16T07:15:26.464Z,4.96
2023-03-16T07:20:33.464Z,5.08
2023-03-16T07:25:39.601Z,5.22
2023-03-16T07:30:56.628Z,5.36
2023-03-16T07:36:10.958Z,5.55
2023-03-16T07:41:18.847Z,5.70
2023-03-16T07:46:22.783Z,5.86
2023-03-16T07:51:26.236Z,6.01
2023-03-16T07:56:36.151Z,6.16
2023-03-16T08:01:56.246Z,6.32
2023-03-16T08:07:02.483Z,6.44
2023-03-16T08:12:19.132Z,6.58
2023-03-16T08:17:23.078Z,6.68
2023-03-16T08:22:27.080Z,6.69
2023-03-16T08:27:31.210Z,6.80
2023-03-16T08:32:37.635Z,6.89
2023-03-16T08:37:42.347Z,7.04
2023-03-16T08:42:46.585Z,7.20
2023-03-16T08:47:51.519Z,7.35
2023-03-16T08:52:55.033Z,7.55
2023-03-16T08:57:58.388Z,7.75
2023-03-16T09:03:02.950Z,7.76
2023-03-16T09:08:06.808Z,7.73
2023-03-16T09:13:10.669Z,7.79
2023-03-16T09:18:14.222Z,7.87
2023-03-16T09:23:19.231Z,7.92
2023-03-16T09:28:22.659Z,7.99
2023-03-16T09:33:32.245Z,8.06
2023-03-16T09:38:37.395Z,8.21
2023-03-16T09:43:49.987Z,8.35
2023-03-16T09:48:56.146Z,8.64
2023-03-16T09:54:03.075Z,8.79
2023-03-16T09:59:14.011Z,8.81
2023-03-16T10:04:26.039Z,8.69
2023-03-16T10:09:35.105Z,8.55
2023-03-16T10:14:44.842Z,8.65
2023-03-16T10:19:59.800Z,8.95
2023-03-16T10:25:32.230Z,9.19
2023-03-16T10:30:37.695Z,9.24
2023-03-16T10:36:07.439Z,9.28
2023-03-16T10:41:23.450Z,9.48
2023-03-16T10:46:29.029Z,9.35
2023-03-16T10:51:37.847Z,9.47
2023-03-16T10:56:41.577Z,9.81
2023-03-16T11:01:50.214Z,10.09
2023-03-16T11:06:57.036Z,10.11
2023-03-16T11:12:15.690Z,10.02
2023-03-16T11:17:35.426Z,9.91
2023-03-16T11:22:41.304Z,9.87
2023-03-16T11:27:49.905Z,9.89
2023-03-16T11:32:54.672Z,9.71
2023-03-16T11:38:03.997Z,9.53
2023-03-16T11:43:18.708Z,9.25
2023-03-16T11:48:36.728Z,9.11
2023-03-16T11:54:21.988Z,9.34
2023-03-16T11:59:42.329Z,9.63
2023-03-16T12:04:56.980Z,9.71
2023-03-16T12:10:14.460Z,9.72
2023-03-16T12:15:36.371Z,9.72
2023-03-16T12:21:02.996Z,9.60
2023-03-16T12:26:07.109Z,9.44
2023-03-16T12:31:35.981Z,9.31
2023-03-16T12:36:52.897Z,9.28
2023-03-16T12:42:15.181Z,9.52
2023-03-16T12:47:33.905Z,9.91
2023-03-16T12:52:46.759Z,10.08
2023-03-16T12:57:59.041Z,10.09
2023-03-16T13:03:05.595Z,10.20
2023-03-16T13:08:13.902Z,10.54
2023-03-16T13:13:18.524Z,10.93
2023-03-16T13:18:25.194Z,11.40
2023-03-16T13:23:47.312Z,11.77
2023-03-16T13:28:55.204Z,12.16
2023-03-16T13:34:01.182Z,12.63
2023-03-16T13:39:15.234Z,12.86
2023-03-16T13:44:19.133Z,12.80
2023-03-16T13:49:23.294Z,12.59
2023-03-16T13:54:30.020Z,12.35
2023-03-16T13:59:33.959Z,12.00
2023-03-16T14:04:37.626Z,11.50
2023-03-16T14:09:41.569Z,11.19
2023-03-16T14:14:55.048Z,11.03
2023-03-16T14:20:01.229Z,10.82
2023-03-16T14:25:06.449Z,10.69
2023-03-16T14:30:18.712Z,10.57
2023-03-16T14:35:22.803Z,10.48
2023-03-16T14:40:26.355Z,10.40
2023-03-16T14:45:38.049Z,10.34
2023-03-16T14:50:41.655Z,10.23
2023-03-16T14:55:45.241Z,10.16
2023-03-16T15:00:54.502Z,10.14
2023-03-16T15:05:58.085Z,10.10
2023-03-16T15:11:06.497Z,10.04
2023-03-16T15:16:12.413Z,10.05
2023-03-16T15:21:21.532Z,10.05
2023-03-16T15:26:29.858Z,10.03
2023-03-16T15:31:33.632Z,10.00
2023-03-16T15:36:37.708Z,9.97
2023-03-16T15:41:47.841Z,9.92
2023-03-16T15:46:54.112Z,9.86
2023-03-16T15:51:57.358Z,9.80
2023-03-16T15:57:01.618Z,9.80
2023-03-16T16:02:24.719Z,9.80
2023-03-16T16:07:28.294Z,9.82
2023-03-16T16:12:32.418Z,9.84
2023-03-16T16:17:50.504Z,9.91
2023-03-16T16:29:26.838Z,9.86
2023-03-16T16:34:30.249Z,9.84
2023-03-16T16:39:34.092Z,9.81
2023-03-16T16:44:38.167Z,9.76
2023-03-16T16:49:41.500Z,9.70
2023-03-16T16:54:45.265Z,9.65
2023-03-16T16:59:49.248Z,9.61
2023-03-16T17:04:53.005Z,9.55
2023-03-16T17:09:56.883Z,9.49
2023-03-16T17:15:00.830Z,9.42
2023-03-16T17:20:14.872Z,9.40
2023-03-16T17:25:19.208Z,9.34
2023-03-16T17:30:25.276Z,9.27
2023-03-16T17:35:29.428Z,9.19
2023-03-16T17:40:33.945Z,9.12
2023-03-16T17:45:37.817Z,9.06
2023-03-16T17:50:41.885Z,9.02
2023-03-16T17:55:47.026Z,8.99
2023-03-16T18:00:55.022Z,8.93
2023-03-16T18:06:01.742Z,8.87
2023-03-16T18:11:13.190Z,8.78
2023-03-16T18:16:23.382Z,8.68
2023-03-16T18:21:27.369Z,8.56
2023-03-16T18:26:32.239Z,8.44
2023-03-16T18:31:35.936Z,8.32
2023-03-16T18:36:48.449Z,8.20
2023-03-16T18:41:52.876Z,8.09
2023-03-16T18:53:22.719Z,7.79
2023-03-16T18:58:26.262Z,7.65
2023-03-16T19:03:33.753Z,7.53
2023-03-16T19:08:37.200Z,7.42
2023-03-16T19:13:40.513Z,7.32
2023-03-16T19:18:44.191Z,7.22
2023-03-16T19:23:56.616Z,7.09
2023-03-16T19:29:01.722Z,7.04
2023-03-16T19:34:17.831Z,7.00
2023-03-16T19:39:21.821Z,6.90
2023-03-16T19:44:28.509Z,6.79
2023-03-16T19:49:32.184Z,6.67
2023-03-16T19:54:35.602Z,6.55
2023-03-16T19:59:38.980Z,6.44
2023-03-16T20:04:42.819Z,6.33
2023-03-16T20:09:46.835Z,6.26
2023-03-16T20:14:51.698Z,6.20
2023-03-16T20:19:56.529Z,6.13
2023-03-16T20:25:02.559Z,6.06
2023-03-16T20:30:16.309Z,6.01
2023-03-16T20:35:23.646Z,6.00
2023-03-16T20:40:27.327Z,5.96
2023-03-16T20:45:31.141Z,5.87
2023-03-16T20:50:34.796Z,5.74
2023-03-16T20:55:38.082Z,5.64
2023-03-16T21:00:42.023Z,5.59
2023-03-16T21:05:47.949Z,5.58
2023-03-16T21:10:54.327Z,5.53
2023-03-16T21:16:00.553Z,5.49
2023-03-16T21:21:04.265Z,5.44
2023-03-16T21:26:07.585Z,5.35
2023-03-16T21:31:18.949Z,5.25
2023-03-16T21:36:26.697Z,5.18
2023-03-16T21:41:30.157Z,5.11
2023-03-16T21:46:33.949Z,5.05
2023-03-16T21:51:37.706Z,4.98
2023-03-16T21:56:42.584Z,4.91
2023-03-16T22:02:00.655Z,4.82
2023-03-16T22:07:11.317Z,4.75
2023-03-16T22:12:14.656Z,4.69
2023-03-16T22:17:22.679Z,4.64
2023-03-16T22:22:27.513Z,4.62
2023-03-16T22:27:30.797Z,4.60
2023-03-16T22:32:36.840Z,4.58
2023-03-16T22:37:40.051Z,4.55
2023-03-16T22:42:43.390Z,4.50
2023-03-16T22:47:47.948Z,4.43
2023-03-16T22:52:54.399Z,4.37
2023-03-16T22:58:36.394Z,4.28
2023-03-16T23:03:40.978Z,4.21
2023-03-16T23:08:44.676Z,4.17
2023-03-16T23:13:48.976Z,4.16
2023-03-16T23:18:52.706Z,4.14
2023-03-16T23:24:03.410Z,4.11
2023-03-16T23:29:08.179Z,4.09
2023-03-16T23:34:17.101Z,4.05
2023-03-16T23:39:20.694Z,4.00
2023-03-16T23:44:28.060Z,3.97
2023-03-16T23:49:41.561Z,3.96
2023-03-16T23:54:44.788Z,3.93
2023-03-16T23:59:48.246Z,3.91
